Time;durP1;ratioP1;P1;durP2;ratioP2;P2;SDS_P1;SDS_P2;PMS_P1;PMS_P2;Temp;Humidity;BMP_temperature;BMP_pressure;BME280_temperature;BME280_humidity;BME280_pressure;Samples;Min_cycle;Max_cycle;Signal;HPM_P1;HPM_P2
2022/01/14 03:05:08;;;;;;;7.58;1.82;;;;;;;4.03;100.00;99589.86;1880630;74;21942;-85
2022/01/14 03:07:37;;;;;;;4.33;1.70;;;;;;;4.01;100.00;99574.41;1846571;75;20885;-85
2022/01/14 03:10:06;;;;;;;4.55;1.50;;;;;;;4.06;100.00;99578.61;1842246;75;21120;-87
2022/01/14 03:12:34;;;;;;;3.50;1.50;;;;;;;4.10;100.00;99580.25;1849666;75;20940;-86
2022/01/14 03:15:02;;;;;;;4.75;1.32;;;;;;;4.13;100.00;99579.73;1838046;75;20942;-85
2022/01/14 03:17:29;;;;;;;5.15;1.15;;;;;;;4.18;100.00;99567.56;1843004;75;20996;-86
2022/01/14 03:20:02;;;;;;;5.08;1.80;;;;;;;4.22;100.00;99565.30;1845350;75;20959;-85
2022/01/14 03:22:33;;;;;;;4.95;1.35;;;;;;;4.26;100.00;99572.11;1848948;75;21061;-87
2022/01/14 03:27:24;;;;;;;5.83;1.05;;;;;;;4.35;100.00;99572.77;1840019;75;21527;-86
2022/01/14 03:29:50;;;;;;;3.63;1.03;;;;;;;4.39;100.00;99558.87;1846365;75;22398;-85
2022/01/14 03:32:17;;;;;;;7.45;1.30;;;;;;;4.41;100.00;99575.20;1845195;75;20998;-87
2022/01/14 03:34:44;;;;;;;5.85;1.50;;;;;;;4.45;100.00;99567.77;1853332;75;21430;-87
2022/01/14 03:37:10;;;;;;;6.37;1.63;;;;;;;4.47;100.00;99551.78;1854662;75;20952;-87
2022/01/14 03:39:40;;;;;;;3.22;1.25;;;;;;;4.47;100.00;99562.12;1863709;75;21450;-88
2022/01/14 03:42:07;;;;;;;3.42;1.45;;;;;;;4.50;100.00;99536.19;1839246;75;21066;-88
2022/01/14 03:44:34;;;;;;;5.67;2.22;;;;;;;4.54;100.00;99553.34;1852870;75;20954;-89
2022/01/14 03:47:00;;;;;;;7.05;1.47;;;;;;;4.58;100.00;99564.44;1845939;75;21274;-90
2022/01/14 03:49:27;;;;;;;6.67;1.40;;;;;;;4.61;100.00;99557.45;1851017;75;21072;-89
2022/01/14 03:51:54;;;;;;;5.30;1.42;;;;;;;4.61;100.00;99549.69;1849192;75;21496;-89
2022/01/14 03:54:22;;;;;;;7.72;1.92;;;;;;;4.64;100.00;99554.78;1849871;75;21555;-89
2022/01/14 03:56:48;;;;;;;6.40;1.57;;;;;;;4.69;100.00;99533.53;1860557;75;20952;-90
2022/01/14 03:59:15;;;;;;;7.00;2.27;;;;;;;4.73;100.00;99507.13;1843671;75;21551;-89
2022/01/14 04:01:41;;;;;;;5.53;1.32;;;;;;;4.77;100.00;99510.51;1846351;75;21050;-89
2022/01/14 04:04:08;;;;;;;6.95;1.45;;;;;;;4.78;100.00;99503.14;1855061;75;20940;-89
2022/01/14 04:06:35;;;;;;;4.80;1.50;;;;;;;4.81;100.00;99515.53;1847156;75;20963;-90
2022/01/14 04:09:01;;;;;;;5.37;1.27;;;;;;;4.83;100.00;99491.78;1850626;75;21650;-89
2022/01/14 04:11:30;;;;;;;9.08;2.05;;;;;;;4.85;100.00;99485.28;1842810;75;21527;-90
2022/01/14 04:14:07;;;;;;;6.72;1.50;;;;;;;4.84;100.00;99486.15;1848631;75;21118;-90
2022/01/14 04:16:25;;;;;;;5.75;1.40;;;;;;;4.88;100.00;99490.37;1798102;77;21002;-90
2022/01/14 04:18:52;;;;;;;8.60;1.30;;;;;;;4.90;100.00;99482.97;1818265;77;21004;-90
2022/01/14 04:21:19;;;;;;;11.88;1.60;;;;;;;4.93;100.00;99486.77;1816770;77;20946;-90
2022/01/14 04:23:46;;;;;;;6.65;1.55;;;;;;;4.98;100.00;99468.50;1805385;78;21067;-89
2022/01/14 04:26:13;;;;;;;7.25;1.32;;;;;;;5.00;100.00;99474.48;1800956;78;21325;-90
2022/01/14 04:28:40;;;;;;;5.60;1.10;;;;;;;5.03;100.00;99443.34;1807804;77;21041;-89
2022/01/14 04:31:09;;;;;;;7.25;1.57;;;;;;;5.08;100.00;99449.23;1803430;77;23744;-89
2022/01/14 04:33:36;;;;;;;8.20;1.98;;;;;;;5.13;100.00;99438.77;1797063;77;20930;-90
2022/01/14 04:36:04;;;;;;;7.85;2.30;;;;;;;5.20;100.00;99458.83;1796559;77;21082;-90
2022/01/14 04:38:32;;;;;;;8.38;2.72;;;;;;;5.25;100.00;99449.19;1795830;77;20999;-89
2022/01/14 04:40:59;;;;;;;7.92;2.02;;;;;;;5.31;100.00;99442.53;1793986;77;21012;-90
2022/01/14 04:43:25;;;;;;;12.97;2.53;;;;;;;5.31;100.00;99443.83;1809236;77;21106;-90
2022/01/14 04:48:31;;;;;;;9.98;1.90;;;;;;;5.29;100.00;99440.01;1823373;77;21095;-89
2022/01/14 04:51:00;;;;;;;6.67;1.67;;;;;;;5.28;100.00;99430.52;1827591;77;20973;-89
2022/01/14 04:53:27;;;;;;;4.12;1.52;;;;;;;5.28;100.00;99458.16;1777725;79;21056;-90
2022/01/14 04:55:55;;;;;;;7.22;1.75;;;;;;;5.28;100.00;99442.63;1797803;78;21088;-87
2022/01/14 04:58:23;;;;;;;4.28;1.30;;;;;;;5.27;100.00;99443.53;1800151;78;20958;-90
2022/01/14 05:00:50;;;;;;;6.83;1.67;;;;;;;5.25;100.00;99450.48;1804570;78;21903;-89
2022/01/14 05:03:17;;;;;;;6.77;2.17;;;;;;;5.23;100.00;99425.09;1797209;78;21580;-90
2022/01/14 05:05:47;;;;;;;9.68;2.65;;;;;;;5.21;100.00;99434.63;1798691;78;21500;-87
2022/01/14 05:08:19;;;;;;;10.00;2.30;;;;;;;5.20;100.00;99431.66;1798096;77;21609;-89
2022/01/14 05:13:16;;;;;;;7.53;1.87;;;;;;;5.18;100.00;99442.48;1800404;77;21061;-90
2022/01/14 05:15:43;;;;;;;12.15;2.08;;;;;;;5.23;100.00;99435.44;1792986;78;20981;-90
2022/01/14 05:18:09;;;;;;;8.18;1.92;;;;;;;5.24;100.00;99425.50;1804614;77;20996;-90
2022/01/14 05:20:36;;;;;;;9.30;1.95;;;;;;;5.25;100.00;99411.20;1804538;77;20993;-89
2022/01/14 05:23:05;;;;;;;8.30;2.23;;;;;;;5.28;100.00;99414.15;1799190;77;20964;-89
2022/01/14 05:25:32;;;;;;;13.93;2.70;;;;;;;5.30;100.00;99440.84;1792504;77;21042;-90
2022/01/14 05:27:59;;;;;;;13.65;2.30;;;;;;;5.31;100.00;99427.00;1807649;78;20910;-89
2022/01/14 05:30:26;;;;;;;9.20;2.10;;;;;;;5.32;100.00;99449.39;1796097;78;21116;-90
2022/01/14 05:32:53;;;;;;;11.18;3.22;;;;;;;5.30;100.00;99429.20;1803170;78;21219;-90
2022/01/14 05:35:24;;;;;;;12.98;2.15;;;;;;;5.30;100.00;99420.14;1799793;77;20950;-90
2022/01/14 05:37:51;;;;;;;10.50;2.22;;;;;;;5.29;100.00;99432.66;1801431;78;21437;-90
2022/01/14 05:40:20;;;;;;;8.53;1.82;;;;;;;5.29;100.00;99434.83;1801263;77;24879;-89
2022/01/14 05:42:48;;;;;;;6.40;2.33;;;;;;;5.27;100.00;99428.00;1794287;78;21005;-89
2022/01/14 05:45:17;;;;;;;9.98;2.40;;;;;;;5.24;100.00;99428.94;1800555;77;20962;-89
2022/01/14 05:47:43;;;;;;;8.85;2.47;;;;;;;5.24;100.00;99425.50;1800305;78;20969;-89
2022/01/14 05:50:15;;;;;;;12.73;2.57;;;;;;;5.25;100.00;99404.73;1798585;78;21135;-90
2022/01/14 05:52:42;;;;;;;6.37;1.90;;;;;;;5.27;100.00;99396.94;1803013;77;21554;-90
2022/01/14 05:55:12;;;;;;;7.85;1.95;;;;;;;5.25;100.00;99411.66;1800742;77;21138;-89
2022/01/14 05:57:39;;;;;;;10.10;2.50;;;;;;;5.23;100.00;99421.20;1802282;78;21101;-83
2022/01/14 06:00:09;;;;;;;9.15;3.05;;;;;;;5.21;100.00;99408.33;1801123;78;21009;-89
2022/01/14 06:02:36;;;;;;;10.50;3.35;;;;;;;5.22;100.00;99420.81;1792975;78;21525;-88
2022/01/14 06:05:03;;;;;;;10.80;2.30;;;;;;;5.22;100.00;99397.06;1785005;78;20986;-88
2022/01/14 06:07:31;;;;;;;10.23;2.55;;;;;;;5.26;100.00;99397.81;1773892;80;21579;-88
2022/01/14 06:09:57;;;;;;;9.23;2.12;;;;;;;5.31;100.00;99389.46;1772852;80;21078;-85
2022/01/14 06:12:24;;;;;;;8.50;2.60;;;;;;;5.38;100.00;99402.62;1773999;80;21622;-85
2022/01/14 06:14:52;;;;;;;9.93;2.62;;;;;;;5.41;100.00;99403.83;1765775;79;22557;-85
2022/01/14 06:17:18;;;;;;;;;;;;;;;5.44;100.00;99397.25;1799024;79;21052;-84
2022/01/14 06:19:45;;;;;;;11.10;2.40;;;;;;;5.45;100.00;99344.56;1791316;79;20209;-85
2022/01/14 06:22:12;;;;;;;8.30;2.05;;;;;;;5.50;100.00;99379.38;1791829;79;21139;-84
2022/01/14 06:24:38;;;;;;;11.05;2.35;;;;;;;5.51;100.00;99374.13;1795885;78;21157;-84
2022/01/14 06:27:05;;;;;;;7.07;2.43;;;;;;;5.51;100.00;99401.33;1780903;79;21073;-84
2022/01/14 06:29:32;;;;;;;15.25;2.80;;;;;;;5.52;100.00;99374.55;1797311;78;20910;-84
2022/01/14 06:31:59;;;;;;;10.85;2.47;;;;;;;5.53;100.00;99363.28;1792898;78;21690;-84
2022/01/14 06:34:26;;;;;;;13.43;2.35;;;;;;;5.55;100.00;99377.04;1791511;78;21171;-83
2022/01/14 06:36:53;;;;;;;16.80;3.33;;;;;;;5.60;100.00;99394.58;1792045;79;21036;-79
2022/01/14 06:39:19;;;;;;;9.35;2.60;;;;;;;5.69;100.00;99390.84;1791281;78;21058;-81
2022/01/14 06:41:46;;;;;;;8.68;2.37;;;;;;;5.75;100.00;99370.36;1787454;78;20967;-78
2022/01/14 06:44:13;;;;;;;9.13;2.40;;;;;;;5.76;100.00;99387.59;1786758;78;20943;-81
2022/01/14 06:46:39;;;;;;;9.65;2.95;;;;;;;5.81;100.00;99396.06;1783521;79;21665;-82
2022/01/14 06:49:11;;;;;;;15.90;3.07;;;;;;;5.85;100.00;99397.64;1787553;79;21608;-84
2022/01/14 06:51:42;;;;;;;7.75;2.67;;;;;;;5.88;100.00;99407.94;1784738;78;21229;-83
2022/01/14 06:54:08;;;;;;;7.35;1.75;;;;;;;5.92;100.00;99393.96;1781770;79;21572;-84
2022/01/14 06:56:35;;;;;;;9.15;1.67;;;;;;;5.99;100.00;99407.58;1792876;78;21122;-84
2022/01/14 06:59:01;;;;;;;7.83;1.82;;;;;;;6.09;100.00;99408.13;1777990;78;21054;-86
2022/01/14 07:01:28;;;;;;;12.78;2.55;;;;;;;6.21;100.00;99394.74;1796092;78;21061;-85
2022/01/14 07:04:00;;;;;;;4.95;1.55;;;;;;;6.28;100.00;99357.34;1787609;78;21524;-84
2022/01/14 07:06:24;;;;;;;10.08;2.50;;;;;;;6.32;100.00;99374.47;1769210;78;20984;-86
2022/01/14 07:08:51;;;;;;;7.95;1.92;;;;;;;6.40;100.00;99362.08;1761546;80;21066;-85
2022/01/14 07:11:18;;;;;;;6.62;1.60;;;;;;;6.43;100.00;99317.88;1761248;80;21186;-86
2022/01/14 07:13:45;;;;;;;9.90;2.33;;;;;;;6.48;100.00;99392.48;1747357;78;21062;-86
2022/01/14 07:16:12;;;;;;;7.83;1.73;;;;;;;6.55;100.00;99396.14;1767456;79;21081;-85
2022/01/14 07:18:39;;;;;;;8.57;2.10;;;;;;;6.57;100.00;99363.22;1760360;79;21543;-86
2022/01/14 07:21:06;;;;;;;8.73;1.50;;;;;;;6.65;100.00;99391.03;1751382;79;22167;-86
2022/01/14 07:23:33;;;;;;;8.35;2.33;;;;;;;6.64;100.00;99369.89;1758965;79;21113;-86
2022/01/14 07:26:04;;;;;;;7.80;1.80;;;;;;;6.60;100.00;99376.08;1762580;79;20968;-87
2022/01/14 07:28:31;;;;;;;14.40;3.92;;;;;;;6.58;100.00;99372.69;1759238;79;21117;-88
2022/01/14 07:31:00;;;;;;;12.05;2.17;;;;;;;6.58;100.00;99344.15;1761524;79;20967;-87
2022/01/14 07:33:27;;;;;;;5.95;1.60;;;;;;;6.55;100.00;99349.45;1761709;79;21064;-87
2022/01/14 07:35:55;;;;;;;7.17;1.92;;;;;;;6.57;100.00;99362.77;1767976;79;22606;-87
2022/01/14 07:38:22;;;;;;;8.70;2.65;;;;;;;6.57;100.00;99371.84;1764364;79;21101;-88
2022/01/14 07:40:49;;;;;;;11.55;2.12;;;;;;;6.59;100.00;99345.86;1772021;79;21862;-88
2022/01/14 07:43:18;;;;;;;7.27;0.93;;;;;;;6.60;100.00;99386.45;1763714;79;20952;-83
2022/01/14 07:45:44;;;;;;;12.40;2.58;;;;;;;6.59;99.81;99417.20;1753949;79;21005;-82
2022/01/14 07:48:11;;;;;;;16.35;1.40;;;;;;;6.59;99.38;99393.39;1765591;79;20971;-81
2022/01/14 07:50:38;;;;;;;9.53;1.80;;;;;;;6.56;98.64;99409.53;1765597;79;21112;-82
2022/01/14 07:53:05;;;;;;;9.80;2.05;;;;;;;6.60;98.65;99403.31;1769899;79;21123;-85
2022/01/14 07:55:32;;;;;;;6.08;1.50;;;;;;;6.59;98.25;99360.13;1765105;79;21074;-89
2022/01/14 07:57:59;;;;;;;8.68;1.87;;;;;;;6.61;98.18;99385.11;1762175;79;22159;-88
2022/01/14 08:00:26;;;;;;;12.27;2.23;;;;;;;6.62;98.17;99383.36;1763681;79;20995;-84
2022/01/14 08:02:52;;;;;;;9.33;2.02;;;;;;;6.61;98.06;99393.32;1774241;79;21097;-79
2022/01/14 08:05:19;;;;;;;11.97;3.00;;;;;;;6.61;98.15;99402.41;1775870;78;21135;-82
2022/01/14 08:07:47;;;;;;;9.57;2.30;;;;;;;6.61;98.20;99393.32;1799044;77;21439;-83
2022/01/14 08:10:15;;;;;;;6.90;1.62;;;;;;;6.62;98.16;99385.50;1799175;77;20895;-82
2022/01/14 08:12:43;;;;;;;5.60;1.22;;;;;;;6.61;97.33;99388.13;1793394;78;20930;-82
2022/01/14 08:15:11;;;;;;;6.40;1.87;;;;;;;6.64;96.33;99375.08;1788871;77;20966;-82
2022/01/14 08:17:38;;;;;;;8.63;1.80;;;;;;;6.70;97.21;99403.39;1794643;77;21003;-87
2022/01/14 08:20:07;;;;;;;;;;;;;;;6.67;95.46;99397.86;1801437;78;20959;-86
2022/01/14 08:22:34;;;;;;;15.25;2.17;;;;;;;6.70;95.43;99424.14;1793915;77;20446;-85
2022/01/14 08:25:04;;;;;;;6.55;1.90;;;;;;;6.72;95.90;99380.38;1808708;77;21040;-86
2022/01/14 08:27:32;;;;;;;8.78;1.70;;;;;;;6.75;95.61;99405.80;1803631;77;20982;-85
2022/01/14 08:29:58;;;;;;;;;;;;;;;6.69;93.89;99418.11;1775154;78;21420;-86
2022/01/14 08:32:25;;;;;;;7.23;1.67;;;;;;;6.72;94.22;99385.99;1754853;78;20137;-89
2022/01/14 08:34:52;;;;;;;11.25;3.12;;;;;;;6.75;94.58;99404.07;1767223;78;21683;-87
2022/01/14 08:37:18;;;;;;;4.73;1.67;;;;;;;6.73;94.70;99387.70;1832056;76;20977;-87
2022/01/14 08:39:45;;;;;;;7.17;1.63;;;;;;;6.71;94.04;99394.69;1835303;77;21143;-88
2022/01/14 08:42:15;;;;;;;6.37;2.03;;;;;;;6.64;93.55;99408.80;1835493;76;21064;-88
2022/01/14 08:44:42;;;;;;;6.10;1.70;;;;;;;6.62;92.80;99408.00;1832369;77;20981;-86
2022/01/14 08:47:11;;;;;;;13.18;1.95;;;;;;;6.58;93.05;99415.06;1833183;76;21056;-87
2022/01/14 08:49:40;;;;;;;6.08;2.47;;;;;;;6.61;94.09;99393.32;1800244;77;20968;-83
2022/01/14 08:52:09;;;;;;;9.65;2.67;;;;;;;6.56;93.72;99399.16;1830934;77;20976;-86
2022/01/14 08:54:36;;;;;;;9.68;2.30;;;;;;;6.52;93.94;99398.84;1832562;77;21112;-86
2022/01/14 08:57:04;;;;;;;13.90;2.47;;;;;;;6.47;94.14;99412.84;1838502;76;21065;-86
2022/01/14 08:59:33;;;;;;;9.58;2.35;;;;;;;6.48;94.28;99398.96;1829989;76;21028;-86
2022/01/14 09:02:04;;;;;;;10.10;2.50;;;;;;;6.49;94.34;99392.86;1830989;77;21029;-87
2022/01/14 09:04:34;;;;;;;7.30;2.20;;;;;;;6.50;94.60;99382.91;1828674;77;21322;-86
2022/01/14 09:07:02;;;;;;;9.08;2.37;;;;;;;6.50;94.15;99371.69;1834638;77;21999;-87
2022/01/14 09:09:29;;;;;;;9.40;1.92;;;;;;;6.50;93.26;99406.25;1828453;76;21646;-87
2022/01/14 09:11:56;;;;;;;5.37;1.93;;;;;;;6.49;92.66;99405.83;1835242;77;20976;-84
2022/01/14 09:14:25;;;;;;;8.08;1.87;;;;;;;6.48;92.85;99398.96;1806320;76;20959;-87
2022/01/14 09:16:56;;;;;;;11.93;2.33;;;;;;;6.49;92.94;99395.45;1832167;77;21057;-86
2022/01/14 09:19:23;;;;;;;8.70;2.08;;;;;;;6.53;93.19;99382.41;1833602;77;21531;-88
2022/01/14 09:21:50;;;;;;;10.58;2.17;;;;;;;6.57;93.52;99399.53;1830212;76;21049;-86
2022/01/14 09:24:17;;;;;;;7.25;2.52;;;;;;;6.58;93.04;99398.63;1831878;77;21112;-87
2022/01/14 09:26:44;;;;;;;10.53;2.75;;;;;;;6.62;93.17;99402.81;1835953;77;21014;-86
2022/01/14 09:29:13;;;;;;;8.43;2.10;;;;;;;6.68;93.61;99402.59;1827415;76;21656;-87
2022/01/14 09:31:42;;;;;;;11.12;2.60;;;;;;;6.67;92.97;99394.42;1829779;77;21042;-86
2022/01/14 09:34:09;;;;;;;8.63;2.35;;;;;;;6.63;92.68;99386.34;1829386;77;21549;-87
2022/01/14 09:36:36;;;;;;;7.80;1.98;;;;;;;6.59;92.39;99389.96;1827040;77;21541;-87
2022/01/14 09:39:09;;;;;;;14.07;2.27;;;;;;;6.59;92.65;99374.39;1835681;76;20970;-81
2022/01/14 09:41:36;;;;;;;9.30;2.35;;;;;;;6.47;90.33;99398.58;1831259;77;20889;-81
2022/01/14 09:44:04;;;;;;;6.85;1.95;;;;;;;6.56;91.21;99405.64;1837660;76;21053;-82
2022/01/14 09:46:31;;;;;;;9.73;2.22;;;;;;;6.54;91.45;99404.84;1834353;77;20909;-83
2022/01/14 09:48:58;;;;;;;10.95;2.30;;;;;;;6.53;92.05;99382.41;1832152;76;21026;-86
2022/01/14 09:51:25;;;;;;;6.70;2.03;;;;;;;6.47;91.93;99425.81;1832727;77;21144;-86
2022/01/14 09:53:52;;;;;;;6.63;1.80;;;;;;;6.41;91.40;99406.58;1834165;77;21044;-87
2022/01/14 09:56:21;;;;;;;7.75;1.67;;;;;;;6.37;90.96;99421.84;1836425;76;21017;-86
2022/01/14 09:58:49;;;;;;;7.00;2.05;;;;;;;6.37;91.68;99410.16;1835899;76;21605;-82
2022/01/14 10:01:20;;;;;;;10.38;2.75;;;;;;;6.36;91.55;99414.09;1835600;76;22367;-87
2022/01/14 10:03:51;;;;;;;8.70;2.10;;;;;;;6.34;91.64;99393.42;1828219;77;21047;-81
2022/01/14 10:06:44;;;;;;;4.78;1.70;;;;;;;6.28;90.73;99422.16;1830814;77;21512;-87
2022/01/14 10:09:40;;;;;;;7.50;2.02;;;;;;;6.27;91.01;99420.45;1836218;77;21471;-88
2022/01/14 10:12:16;;;;;;;7.70;1.67;;;;;;;6.27;91.63;99419.16;1828525;77;20970;-84
2022/01/14 10:15:00;;;;;;;10.03;2.27;;;;;;;6.26;91.62;99429.98;1831301;77;21034;-88
2022/01/14 10:17:49;;;;;;;11.08;2.42;;;;;;;6.25;91.25;99414.49;1836219;77;21029;-88
2022/01/14 10:20:16;;;;;;;9.78;2.17;;;;;;;6.23;90.52;99447.39;1781029;77;20992;-87
2022/01/14 10:22:46;;;;;;;9.95;2.35;;;;;;;6.30;91.00;99407.37;1832935;77;21434;-88
2022/01/14 10:25:21;;;;;;;5.50;1.75;;;;;;;6.30;90.77;99430.71;1831438;77;21597;-87
2022/01/14 10:27:52;;;;;;;6.55;1.85;;;;;;;6.30;90.40;99429.87;1802157;77;20997;-86
2022/01/14 10:30:33;;;;;;;10.72;2.35;;;;;;;6.20;90.26;99426.77;1803840;77;21065;-81
2022/01/14 10:33:05;;;;;;;8.48;3.05;;;;;;;6.28;90.65;99457.16;1802531;78;21055;-88
2022/01/14 10:35:42;;;;;;;9.70;1.82;;;;;;;6.27;89.39;99433.41;1801267;77;21124;-88
2022/01/14 10:38:18;;;;;;;6.40;1.90;;;;;;;6.27;89.18;99428.23;1797565;77;21230;-87
2022/01/14 13:15:44;;;;;;;2.77;1.40;;;;;;;4.73;73.78;99645.95;1808767;77;27441;-79
2022/01/14 13:18:20;;;;;;;6.72;1.55;;;;;;;4.66;71.60;99637.06;1783050;78;21664;-80
2022/01/14 13:21:04;;;;;;;7.72;1.77;;;;;;;4.66;72.38;99666.80;1787655;78;21093;-77
2022/01/14 13:23:34;;;;;;;8.35;1.77;;;;;;;4.67;73.64;99658.59;1583920;88;21136;-77
2022/01/14 13:26:12;;;;;;;10.65;2.15;;;;;;;4.64;72.99;99669.02;1606521;87;21085;-79
2022/01/14 13:28:55;;;;;;;7.12;1.95;;;;;;;4.62;72.41;99657.44;1604300;88;20989;-76
2022/01/14 13:31:28;;;;;;;6.65;2.52;;;;;;;4.59;70.44;99678.16;1602360;87;21161;-82
2022/01/14 13:33:58;;;;;;;6.75;2.30;;;;;;;4.61;72.73;99668.64;1603649;87;21142;-81
2022/01/14 13:36:29;;;;;;;8.35;2.55;;;;;;;4.58;71.03;99680.80;1584476;89;21059;-81
2022/01/14 13:39:12;;;;;;;8.83;2.40;;;;;;;4.53;70.32;99670.56;1572785;89;21687;-81
2022/01/14 13:41:43;;;;;;;5.72;2.10;;;;;;;4.51;70.45;99694.33;1571106;89;21013;-81
2022/01/14 13:44:31;;;;;;;6.22;2.52;;;;;;;4.47;71.06;99714.66;1542790;90;21156;-76
2022/01/14 13:47:02;;;;;;;7.70;2.30;;;;;;;4.43;70.06;99706.13;1565442;90;21103;-80
2022/01/14 13:49:30;;;;;;;5.25;1.87;;;;;;;4.36;68.49;99712.31;1568016;89;21227;-85
2022/01/14 13:52:15;;;;;;;7.42;1.90;;;;;;;4.40;69.30;99723.45;1565463;90;21685;-80
2022/01/14 13:54:42;;;;;;;5.85;1.85;;;;;;;4.31;67.58;99727.52;1571463;89;21568;-83
2022/01/14 13:57:19;;;;;;;4.67;2.10;;;;;;;4.33;68.52;99727.05;1541263;90;21147;-83
2022/01/14 13:59:50;;;;;;;6.05;1.30;;;;;;;4.33;71.15;99716.70;1584711;89;21169;-84
2022/01/14 14:02:31;;;;;;;6.20;2.00;;;;;;;4.21;67.14;99736.77;1571800;90;21009;-84
2022/01/14 14:06:23;;;;;;;11.00;2.58;;;;;;;4.23;68.68;99745.34;1834045;77;21507;-80
2022/01/14 14:09:05;;;;;;;9.33;2.27;;;;;;;4.13;69.20;99758.03;1811537;78;21021;-79
2022/01/14 14:17:10;;;;;;;3.60;1.57;;;;;;;4.05;69.54;99756.05;1791558;77;20997;-81
2022/01/14 14:19:57;;;;;;;7.08;2.00;;;;;;;3.98;64.61;99773.41;1800462;78;21072;-84
2022/01/14 14:25:34;;;;;;;5.37;1.40;;;;;;;3.97;64.90;99798.81;1731074;81;21793;-85
2022/01/14 14:28:08;;;;;;;4.17;1.25;;;;;;;3.93;64.73;99795.05;1731398;81;20943;-83
2022/01/14 14:30:56;;;;;;;6.22;1.40;;;;;;;3.87;67.12;99795.17;1705354;82;21314;-84
2022/01/14 14:33:24;;;;;;;5.28;1.40;;;;;;;3.80;67.22;99800.42;1725837;81;21535;-84
2022/01/14 14:36:09;;;;;;;5.80;1.37;;;;;;;3.77;66.54;99813.39;1731241;81;20978;-84
2022/01/14 14:38:30;;;;;;;6.00;1.27;;;;;;;3.70;67.38;99809.23;1724036;81;21069;-84
2022/01/14 14:41:03;;;;;;;5.20;1.30;;;;;;;3.63;67.48;99820.54;1725707;81;21076;-84
2022/01/14 14:43:38;;;;;;;4.42;1.45;;;;;;;3.59;67.49;99817.61;1729552;81;21627;-85
2022/01/14 14:46:10;;;;;;;4.78;1.65;;;;;;;3.51;67.57;99828.50;1727784;81;21009;-83
2022/01/14 14:48:41;;;;;;;4.97;1.30;;;;;;;3.44;69.07;99830.77;1730930;81;21029;-83
2022/01/14 14:51:11;;;;;;;2.95;0.78;;;;;;;3.36;69.18;99830.47;1730126;81;22295;-79
2022/01/14 14:53:42;;;;;;;3.42;1.22;;;;;;;3.29;69.04;99846.91;1730920;81;21588;-81
2022/01/14 14:56:13;;;;;;;5.30;1.10;;;;;;;3.28;67.17;99845.22;1729810;81;21013;-80
2022/01/14 14:58:46;;;;;;;4.72;1.65;;;;;;;3.31;68.55;99856.78;1730409;81;21246;-84
2022/01/14 15:01:14;;;;;;;4.85;1.55;;;;;;;3.24;68.84;99856.45;1727407;81;21034;-88
2022/01/14 15:03:43;;;;;;;9.68;1.80;;;;;;;3.18;69.94;99858.28;1731866;81;21739;-82
2022/01/14 15:06:12;;;;;;;5.80;1.60;;;;;;;3.12;69.55;99856.64;1708491;81;21060;-79
2022/01/14 15:08:45;;;;;;;3.83;1.70;;;;;;;3.07;69.74;99867.02;1732672;81;21563;-77
2022/01/14 15:11:12;;;;;;;7.90;2.30;;;;;;;3.02;69.79;99867.95;1733619;81;21081;-80
2022/01/14 15:14:04;;;;;;;5.25;1.45;;;;;;;2.96;70.38;99878.37;1726420;81;21040;-79
2022/01/14 15:17:20;;;;;;;14.15;2.12;;;;;;;2.88;69.97;99876.73;1726170;81;21575;-80
2022/01/14 15:19:40;;;;;;;6.85;2.12;;;;;;;2.83;70.55;99888.86;1719374;81;21065;-86
2022/01/14 15:22:12;;;;;;;7.42;2.05;;;;;;;2.76;70.88;99887.22;1732643;81;21084;-82
2022/01/14 15:24:43;;;;;;;3.90;1.87;;;;;;;2.72;70.51;99900.16;1687542;82;21144;-84
2022/01/14 15:27:22;;;;;;;6.90;2.15;;;;;;;2.69;70.22;99890.77;1705178;83;21077;-77
2022/01/14 15:29:52;;;;;;;6.10;2.08;;;;;;;2.68;70.94;99889.04;1701593;83;21097;-82
2022/01/14 15:32:19;;;;;;;5.08;1.80;;;;;;;2.62;70.08;99886.54;1702937;83;21007;-84
2022/01/14 15:34:46;;;;;;;9.20;1.80;;;;;;;2.61;70.50;99897.73;1700674;83;21096;-83
2022/01/14 15:37:20;;;;;;;8.25;2.20;;;;;;;2.60;69.87;99911.03;1674046;83;21072;-86
2022/01/14 15:39:47;;;;;;;6.92;2.17;;;;;;;2.59;70.83;99905.91;1698823;83;21014;-82
2022/01/14 15:42:15;;;;;;;8.25;2.65;;;;;;;2.55;70.41;99911.96;1703314;83;21224;-80
2022/01/14 15:44:42;;;;;;;10.72;2.90;;;;;;;2.52;70.25;99910.70;1704137;83;21073;-84
2022/01/14 15:47:09;;;;;;;5.65;2.05;;;;;;;2.50;70.71;99916.34;1711314;83;20983;-83
2022/01/14 15:49:36;;;;;;;8.33;1.90;;;;;;;2.40;70.84;99920.28;1705215;82;21068;-83
2022/01/14 15:52:05;;;;;;;;;;;;;;;2.39;70.68;99916.02;1709378;83;21495;-80
2022/01/14 15:54:31;;;;;;;3.80;1.80;;;;;;;2.34;70.50;99917.78;1708695;83;21280;-84
2022/01/14 15:57:00;;;;;;;8.20;1.90;;;;;;;2.33;71.14;99926.39;1700541;82;20935;-83
2022/01/14 15:59:28;;;;;;;4.78;1.98;;;;;;;2.27;71.29;99931.62;1703496;83;21196;-84
2022/01/14 16:01:55;;;;;;;7.75;2.75;;;;;;;2.19;71.36;99938.56;1700870;83;21105;-83
2022/01/14 16:04:24;;;;;;;8.38;3.27;;;;;;;2.16;71.74;99932.16;1618801;85;21117;-84
2022/01/14 16:07:19;;;;;;;8.90;3.55;;;;;;;2.14;71.93;99930.02;1780509;78;28004;-84
2022/01/14 16:09:59;;;;;;;11.20;3.20;;;;;;;2.08;71.97;99941.23;1764682;79;21012;-84
2022/01/14 16:12:36;;;;;;;9.23;2.85;;;;;;;2.06;72.13;99944.69;1717554;81;21106;-85
2022/01/14 16:15:06;;;;;;;8.33;2.80;;;;;;;1.98;72.25;99943.02;1710392;82;21031;-85
2022/01/14 16:17:34;;;;;;;5.50;2.37;;;;;;;1.96;72.45;99957.66;1706024;82;21038;-85
2022/01/14 16:20:02;;;;;;;;;;;;;;;1.93;72.66;99957.69;1705968;82;21098;-83
2022/01/14 16:22:29;;;;;;;13.72;3.80;;;;;;;1.89;72.73;99966.28;1708452;82;20090;-85
2022/01/14 16:25:08;;;;;;;;;;;;;;;;;;;;;
2022/01/14 16:27:38;;;;;;;5.85;2.55;;;;;;;1.86;73.01;99970.17;1759493;77;24295;-83
2022/01/14 16:30:09;;;;;;;10.70;2.90;;;;;;;1.78;73.02;99976.66;1746589;80;21101;-82
2022/01/14 16:32:37;;;;;;;7.20;2.45;;;;;;;1.78;73.26;99984.83;1726371;80;21049;-83
2022/01/14 16:35:05;;;;;;;;;;;;;;;1.75;73.30;99986.14;1735871;80;21697;-82
2022/01/14 16:37:32;;;;;;;11.28;3.12;;;;;;;1.72;73.44;99991.31;1750996;80;20181;-84
2022/01/14 16:40:01;;;;;;;9.13;2.20;;;;;;;1.68;73.49;99997.33;1743781;80;21555;-83
2022/01/14 16:42:30;;;;;;;9.25;2.65;;;;;;;1.67;73.51;100005.92;1747803;80;21554;-82
2022/01/14 16:45:09;;;;;;;10.35;3.20;;;;;;;1.67;73.63;100008.50;1745733;80;21506;-84
2022/01/14 16:47:40;;;;;;;8.93;2.80;;;;;;;1.66;73.54;100011.95;1749797;80;20938;-79
2022/01/14 16:50:08;;;;;;;9.50;2.60;;;;;;;1.62;73.51;100012.81;1734579;80;21095;-82
2022/01/14 16:52:35;;;;;;;9.08;2.58;;;;;;;1.59;73.42;100014.13;1734897;80;20977;-83
2022/01/14 16:55:04;;;;;;;8.65;2.60;;;;;;;1.60;73.52;100022.26;1734843;80;21652;-81
2022/01/14 16:57:32;;;;;;;7.67;2.60;;;;;;;1.60;73.39;100027.41;1727975;80;21130;-81
2022/01/14 16:59:59;;;;;;;6.58;2.27;;;;;;;1.60;73.33;100019.69;1736455;80;21651;-83
2022/01/14 17:02:29;;;;;;;6.92;2.60;;;;;;;1.60;73.10;100030.86;1738752;80;21040;-77
2022/01/14 17:04:56;;;;;;;10.05;2.55;;;;;;;1.65;72.96;100043.68;1736844;80;21047;-82
2022/01/14 17:07:23;;;;;;;5.45;1.98;;;;;;;1.69;72.23;100043.66;1737047;80;21033;-82
2022/01/14 17:09:50;;;;;;;5.53;2.05;;;;;;;1.72;72.50;100040.22;1734307;80;21249;-82
2022/01/14 17:12:22;;;;;;;5.58;2.27;;;;;;;1.72;71.73;100050.52;1732793;80;21017;-83
2022/01/14 17:14:49;;;;;;;9.45;2.42;;;;;;;1.76;71.09;100055.66;1737830;80;21195;-82
2022/01/14 17:17:19;;;;;;;8.93;2.85;;;;;;;1.78;72.11;100056.91;1735047;80;21037;-78
2022/01/14 17:19:46;;;;;;;8.15;2.60;;;;;;;1.74;72.35;100057.37;1733851;80;21040;-81
2022/01/14 17:22:14;;;;;;;5.37;1.90;;;;;;;1.66;71.93;100054.42;1738176;80;21118;-76
2022/01/14 17:24:44;;;;;;;6.28;2.22;;;;;;;1.61;72.25;100060.02;1735558;80;21017;-79
2022/01/14 17:27:14;;;;;;;7.08;2.55;;;;;;;1.62;72.42;100055.28;1732704;80;20947;-81
2022/01/14 17:29:41;;;;;;;8.28;1.95;;;;;;;1.59;72.53;100057.87;1735263;80;21031;-82
2022/01/14 17:32:09;;;;;;;4.93;1.80;;;;;;;1.58;71.75;100065.19;1736251;80;21096;-80
2022/01/14 17:34:37;;;;;;;9.23;2.15;;;;;;;1.61;72.25;100067.74;1736999;80;21896;-82
2022/01/14 17:37:04;;;;;;;;;;;;;;;1.64;72.01;100069.86;1736421;80;21052;-82
2022/01/14 17:39:34;;;;;;;6.15;1.45;;;;;;;1.63;72.30;100076.32;1725088;80;20228;-80
2022/01/14 17:42:03;;;;;;;7.42;2.58;;;;;;;1.59;72.02;100074.61;1730650;80;21038;-81
2022/01/14 17:44:36;;;;;;;7.62;2.00;;;;;;;1.54;72.51;100069.06;1737215;80;21021;-82
2022/01/14 17:47:05;;;;;;;9.25;2.72;;;;;;;1.49;72.58;100081.09;1733333;80;21148;-81